Time;durP1;ratioP1;P1;durP2;ratioP2;P2;SDS_P1;SDS_P2;PMS_P1;PMS_P2;Temp;Humidity;BMP_temperature;BMP_pressure;BME280_temperature;BME280_humidity;BME280_pressure;Samples;Min_cycle;Max_cycle;Signal;HPM_P1;HPM_P2
2023/12/24 00:00:08;;;;;;;17.73;4.47;;;;;;;;;;5013311;28;20042;-70
2023/12/24 00:02:34;;;;;;;21.40;4.35;;;;;;;;;;4994279;28;20042;-70
2023/12/24 00:05:00;;;;;;;24.85;5.18;;;;;;;;;;4992104;28;20121;-70
2023/12/24 00:07:26;;;;;;;15.82;3.97;;;;;;;;;;4992353;28;20042;-70
2023/12/24 00:09:52;;;;;;;25.17;4.68;;;;;;;;;;4992720;28;20069;-70
2023/12/24 00:12:18;;;;;;;19.85;4.50;;;;;;;;;;4992626;28;20531;-70
2023/12/24 00:14:44;;;;;;;18.67;4.25;;;;;;;;;;4992852;28;20046;-70
2023/12/24 00:17:11;;;;;;;18.92;4.43;;;;;;;;;;4994629;28;20042;-70
2023/12/24 00:19:37;;;;;;;19.17;4.55;;;;;;;;;;5004880;28;20053;-70
2023/12/24 00:22:05;;;;;;;20.20;4.53;;;;;;;;;;5002617;28;20464;-70
2023/12/24 00:24:31;;;;;;;16.83;4.05;;;;;;;;;;4993403;28;20540;-70
2023/12/24 00:26:57;;;;;;;31.73;5.32;;;;;;;;;;5007383;28;20497;-70
2023/12/24 00:29:23;;;;;;;21.50;4.65;;;;;;;;;;5011046;28;20052;-70
2023/12/24 00:31:50;;;;;;;22.60;4.60;;;;;;;;;;5012844;28;20054;-70
2023/12/24 00:34:16;;;;;;;25.00;4.50;;;;;;;;;;5006817;28;20117;-70
2023/12/24 00:36:42;;;;;;;16.58;4.22;;;;;;;;;;4991653;28;20363;-70
2023/12/24 00:39:08;;;;;;;22.75;4.70;;;;;;;;;;4991438;28;20046;-70
2023/12/24 00:41:34;;;;;;;28.02;5.13;;;;;;;;;;4992479;28;20053;-70
2023/12/24 00:44:00;;;;;;;20.35;4.22;;;;;;;;;;4992843;28;20042;-70
2023/12/24 00:46:26;;;;;;;22.90;4.53;;;;;;;;;;4993023;28;20399;-70
2023/12/24 00:48:52;;;;;;;24.58;4.85;;;;;;;;;;4992218;28;20046;-70
2023/12/24 00:51:18;;;;;;;26.63;4.55;;;;;;;;;;4992854;28;20042;-70
2023/12/24 00:53:44;;;;;;;29.27;5.22;;;;;;;;;;4992510;28;20050;-70
2023/12/24 00:56:10;;;;;;;19.77;5.53;;;;;;;;;;4992512;28;20096;-70
2023/12/24 00:58:37;;;;;;;20.05;4.60;;;;;;;;;;4992683;28;20366;-70
2023/12/24 01:01:03;;;;;;;18.83;3.95;;;;;;;;;;4991265;28;20328;-70
2023/12/24 01:03:29;;;;;;;15.80;4.03;;;;;;;;;;4992266;28;20034;-70
2023/12/24 01:05:55;;;;;;;18.90;4.25;;;;;;;;;;4992639;28;20042;-70
2023/12/24 01:08:21;;;;;;;19.35;4.07;;;;;;;;;;4992477;28;20047;-70
2023/12/24 01:10:48;;;;;;;27.58;4.90;;;;;;;;;;4992265;28;20080;-70
2023/12/24 01:13:19;;;;;;;20.67;4.05;;;;;;;;;;4992470;28;20685;-70
2023/12/24 01:15:46;;;;;;;19.95;3.42;;;;;;;;;;4992405;28;20049;-70
2023/12/24 01:18:13;;;;;;;24.20;3.65;;;;;;;;;;4992789;28;20092;-70
2023/12/24 01:20:39;;;;;;;24.25;4.22;;;;;;;;;;5010402;28;20050;-70
2023/12/24 01:23:05;;;;;;;17.25;3.40;;;;;;;;;;5010595;28;20045;-70
2023/12/24 01:25:31;;;;;;;20.40;3.88;;;;;;;;;;5005150;28;20121;-70
2023/12/24 01:27:58;;;;;;;17.40;4.03;;;;;;;;;;4992186;28;20064;-70
2023/12/24 01:30:23;;;;;;;19.00;3.72;;;;;;;;;;4991969;28;20061;-70
2023/12/24 01:32:51;;;;;;;22.42;4.07;;;;;;;;;;4990724;28;20542;-70
2023/12/24 01:35:18;;;;;;;18.75;3.70;;;;;;;;;;4992107;28;20038;-70
2023/12/24 01:37:44;;;;;;;19.45;3.58;;;;;;;;;;4990278;28;20145;-70
2023/12/24 01:40:10;;;;;;;20.35;4.00;;;;;;;;;;4990357;28;20517;-70
2023/12/24 01:42:36;;;;;;;18.45;3.25;;;;;;;;;;4990585;28;20038;-70
2023/12/24 01:45:02;;;;;;;17.02;3.20;;;;;;;;;;4990821;28;20046;-70
2023/12/24 01:47:28;;;;;;;14.73;2.90;;;;;;;;;;4990765;28;20121;-69
2023/12/24 01:49:54;;;;;;;12.55;2.92;;;;;;;;;;4991795;28;20571;-69
2023/12/24 01:52:20;;;;;;;14.02;2.53;;;;;;;;;;4992015;28;20070;-69
2023/12/24 01:54:48;;;;;;;13.02;2.90;;;;;;;;;;4990338;28;20073;-69
2023/12/24 01:57:14;;;;;;;10.00;2.35;;;;;;;;;;4991635;28;20038;-69
2023/12/24 01:59:41;;;;;;;9.77;2.22;;;;;;;;;;4991825;28;20042;-69
2023/12/24 02:02:08;;;;;;;16.58;3.10;;;;;;;;;;4991382;28;20038;-69
2023/12/24 02:04:34;;;;;;;12.43;2.90;;;;;;;;;;4991981;28;20125;-69
2023/12/24 02:07:00;;;;;;;13.77;2.47;;;;;;;;;;4992134;28;20547;-69
2023/12/24 02:09:26;;;;;;;10.75;2.38;;;;;;;;;;4990385;28;20038;-69
2023/12/24 02:11:53;;;;;;;12.77;3.22;;;;;;;;;;4992125;28;20038;-69
2023/12/24 02:14:19;;;;;;;10.70;2.60;;;;;;;;;;4990531;28;20046;-69
2023/12/24 02:16:46;;;;;;;12.18;2.70;;;;;;;;;;4989926;28;20069;-69
2023/12/24 02:19:16;;;;;;;8.73;2.65;;;;;;;;;;5000694;28;20073;-69
2023/12/24 02:21:42;;;;;;;12.15;3.10;;;;;;;;;;5009789;28;20049;-69
2023/12/24 02:24:09;;;;;;;10.15;3.35;;;;;;;;;;5010827;28;20084;-69
2023/12/24 02:26:38;;;;;;;11.10;3.45;;;;;;;;;;4995735;28;20054;-69
2023/12/24 02:29:33;;;;;;;13.27;3.40;;;;;;;;;;4991891;28;20583;-69
2023/12/24 02:32:03;;;;;;;12.65;3.30;;;;;;;;;;4974862;28;20457;-69
2023/12/24 02:34:30;;;;;;;12.95;3.90;;;;;;;;;;4990522;28;20133;-69
2023/12/24 02:36:56;;;;;;;12.68;3.10;;;;;;;;;;4991558;28;20078;-69
2023/12/24 02:39:22;;;;;;;10.90;2.92;;;;;;;;;;4991205;28;20496;-69
2023/12/24 02:41:49;;;;;;;11.32;2.75;;;;;;;;;;4991418;28;20096;-69
2023/12/24 02:44:15;;;;;;;11.40;3.22;;;;;;;;;;4991451;28;20043;-69
2023/12/24 02:46:41;;;;;;;11.52;3.00;;;;;;;;;;4991144;28;20046;-70
2023/12/24 02:49:07;;;;;;;14.35;3.08;;;;;;;;;;4990512;28;20081;-70
2023/12/24 02:51:33;;;;;;;11.88;3.42;;;;;;;;;;4993846;28;20603;-70
2023/12/24 02:53:59;;;;;;;11.10;2.97;;;;;;;;;;4993394;28;20053;-70
2023/12/24 02:56:25;;;;;;;13.02;2.83;;;;;;;;;;4993563;28;20056;-70
2023/12/24 02:58:51;;;;;;;11.93;2.80;;;;;;;;;;4993297;28;20050;-70
2023/12/24 03:01:17;;;;;;;13.93;2.72;;;;;;;;;;4994700;28;20113;-70
2023/12/24 03:03:45;;;;;;;12.88;2.35;;;;;;;;;;4994897;28;20042;-70
2023/12/24 03:06:12;;;;;;;6.65;2.40;;;;;;;;;;4994980;28;20090;-70
2023/12/24 03:08:38;;;;;;;11.13;2.55;;;;;;;;;;4994541;28;20056;-70
2023/12/24 03:11:04;;;;;;;8.73;2.95;;;;;;;;;;4994862;28;20042;-70
2023/12/24 03:13:30;;;;;;;9.20;2.75;;;;;;;;;;4993495;28;20512;-69
2023/12/24 03:15:56;;;;;;;9.07;2.70;;;;;;;;;;4993317;28;20046;-69
2023/12/24 03:18:22;;;;;;;10.50;2.85;;;;;;;;;;4997132;28;20481;-69
2023/12/24 03:20:48;;;;;;;7.60;2.90;;;;;;;;;;5013414;28;20097;-69
2023/12/24 03:23:14;;;;;;;9.63;2.88;;;;;;;;;;5014501;28;20144;-69
2023/12/24 03:25:40;;;;;;;7.40;2.50;;;;;;;;;;5006632;28;20042;-69
2023/12/24 03:28:06;;;;;;;7.70;2.70;;;;;;;;;;4993166;28;20409;-69
2023/12/24 03:30:32;;;;;;;4.80;2.13;;;;;;;;;;4992947;28;20058;-70
2023/12/24 03:32:58;;;;;;;9.75;2.65;;;;;;;;;;4993349;28;20476;-69
2023/12/24 03:35:24;;;;;;;11.07;2.55;;;;;;;;;;4993328;28;20121;-69
2023/12/24 03:37:50;;;;;;;7.63;2.33;;;;;;;;;;4992552;28;20047;-69
2023/12/24 03:40:16;;;;;;;10.05;2.25;;;;;;;;;;4994318;28;20047;-70
2023/12/24 03:42:42;;;;;;;9.65;2.35;;;;;;;;;;4994534;28;20517;-70
2023/12/24 03:45:08;;;;;;;6.35;2.53;;;;;;;;;;4994028;28;20042;-70
2023/12/24 03:47:35;;;;;;;9.05;2.53;;;;;;;;;;4992682;28;20406;-70
2023/12/24 03:50:01;;;;;;;6.88;2.45;;;;;;;;;;4992941;28;20700;-70
2023/12/24 03:52:27;;;;;;;7.95;2.60;;;;;;;;;;4994070;28;20049;-70
2023/12/24 03:54:53;;;;;;;10.48;3.13;;;;;;;;;;4992274;28;20047;-70
2023/12/24 03:57:19;;;;;;;7.32;2.47;;;;;;;;;;4993735;28;20149;-70
2023/12/24 03:59:45;;;;;;;8.10;2.63;;;;;;;;;;4993726;28;20042;-70
2023/12/24 04:02:11;;;;;;;8.30;2.15;;;;;;;;;;4991894;28;20046;-70
2023/12/24 04:04:37;;;;;;;7.78;2.30;;;;;;;;;;4993637;28;20125;-70
2023/12/24 04:07:03;;;;;;;3.60;1.80;;;;;;;;;;4992163;28;20045;-70
2023/12/24 04:09:31;;;;;;;4.68;1.98;;;;;;;;;;4993189;28;20081;-70
2023/12/24 04:11:57;;;;;;;8.23;2.00;;;;;;;;;;4992523;28;20058;-70
2023/12/24 04:14:23;;;;;;;4.72;1.83;;;;;;;;;;4993435;28;20048;-70
2023/12/24 04:16:49;;;;;;;3.13;1.80;;;;;;;;;;4991880;28;20073;-70
2023/12/24 04:19:15;;;;;;;4.80;1.60;;;;;;;;;;5001488;28;20050;-70
2023/12/24 04:21:42;;;;;;;7.07;1.70;;;;;;;;;;5012867;28;20392;-70
2023/12/24 04:24:08;;;;;;;7.72;2.13;;;;;;;;;;5011356;28;20392;-70
2023/12/24 04:26:38;;;;;;;4.30;1.70;;;;;;;;;;4998287;28;20520;-70
2023/12/24 04:29:04;;;;;;;4.25;1.60;;;;;;;;;;4993278;28;20129;-70
2023/12/24 04:31:30;;;;;;;5.35;1.83;;;;;;;;;;4992423;28;20480;-70
2023/12/24 04:33:56;;;;;;;4.93;1.80;;;;;;;;;;4993107;28;20052;-69
2023/12/24 04:36:22;;;;;;;5.10;1.90;;;;;;;;;;4992206;28;20038;-70
2023/12/24 04:38:48;;;;;;;2.45;1.67;;;;;;;;;;4992745;28;20043;-70
2023/12/24 04:41:18;;;;;;;2.58;1.70;;;;;;;;;;4993095;28;20382;-70
2023/12/24 04:43:44;;;;;;;4.32;1.80;;;;;;;;;;4993142;28;20689;-70
2023/12/24 04:46:10;;;;;;;6.88;1.90;;;;;;;;;;4992310;28;20046;-70
2023/12/24 04:48:36;;;;;;;4.72;1.80;;;;;;;;;;4991537;28;20133;-70
2023/12/24 04:51:02;;;;;;;5.97;2.53;;;;;;;;;;4991627;28;20524;-70
2023/12/24 04:53:28;;;;;;;3.75;2.42;;;;;;;;;;4992482;28;20493;-70
2023/12/24 04:55:55;;;;;;;5.60;2.50;;;;;;;;;;4991672;28;20050;-70
2023/12/24 04:58:21;;;;;;;6.53;2.80;;;;;;;;;;4991425;28;20597;-70
2023/12/24 05:00:47;;;;;;;5.72;3.05;;;;;;;;;;4991304;28;20042;-70
2023/12/24 05:03:13;;;;;;;5.88;2.78;;;;;;;;;;4992631;28;20038;-69
2023/12/24 05:05:39;;;;;;;5.30;2.72;;;;;;;;;;4992848;28;20046;-69
2023/12/24 05:08:06;;;;;;;5.97;2.90;;;;;;;;;;4992085;28;20125;-69
2023/12/24 05:10:32;;;;;;;7.15;2.97;;;;;;;;;;4992796;28;20053;-70
2023/12/24 05:12:58;;;;;;;6.78;2.75;;;;;;;;;;4990808;28;20109;-70
2023/12/24 05:15:24;;;;;;;4.30;2.97;;;;;;;;;;4992143;28;20563;-70
2023/12/24 05:17:50;;;;;;;8.40;3.30;;;;;;;;;;4992597;28;20566;-70
2023/12/24 05:20:16;;;;;;;7.40;3.20;;;;;;;;;;5010079;28;20050;-70
2023/12/24 05:22:42;;;;;;;6.10;3.08;;;;;;;;;;5011583;28;20128;-70
2023/12/24 05:25:08;;;;;;;6.93;3.33;;;;;;;;;;5009260;28;20034;-70
2023/12/24 05:27:34;;;;;;;7.28;3.55;;;;;;;;;;4992291;28;20412;-70
2023/12/24 05:30:00;;;;;;;7.05;3.30;;;;;;;;;;4991691;28;20046;-70
2023/12/24 05:32:26;;;;;;;6.07;3.30;;;;;;;;;;4992404;28;20046;-70
2023/12/24 05:34:53;;;;;;;7.15;4.18;;;;;;;;;;4992157;28;20045;-69
2023/12/24 05:37:19;;;;;;;6.88;4.22;;;;;;;;;;4990617;28;20061;-69
2023/12/24 05:39:45;;;;;;;10.43;4.40;;;;;;;;;;4992170;28;20042;-70
2023/12/24 05:42:11;;;;;;;9.43;4.75;;;;;;;;;;4990895;28;20042;-70
2023/12/24 05:44:37;;;;;;;6.07;4.30;;;;;;;;;;4991945;28;20120;-70
2023/12/24 05:47:03;;;;;;;9.77;5.10;;;;;;;;;;4991978;28;20488;-70
2023/12/24 05:49:29;;;;;;;10.13;5.60;;;;;;;;;;4990782;28;20054;-70
2023/12/24 05:51:55;;;;;;;12.82;5.85;;;;;;;;;;4990510;28;20397;-70
2023/12/24 05:54:21;;;;;;;10.10;5.45;;;;;;;;;;4992190;28;20038;-70
2023/12/24 05:56:47;;;;;;;14.07;6.40;;;;;;;;;;4991074;28;20054;-70
2023/12/24 05:59:13;;;;;;;14.02;6.30;;;;;;;;;;4991482;28;20085;-70
2023/12/24 06:01:40;;;;;;;10.27;6.03;;;;;;;;;;4992489;28;20073;-70
2023/12/24 06:04:06;;;;;;;11.65;6.53;;;;;;;;;;4992151;28;20495;-69
2023/12/24 06:06:32;;;;;;;12.02;5.90;;;;;;;;;;4991753;28;20092;-70
2023/12/24 06:08:58;;;;;;;17.40;6.78;;;;;;;;;;4991825;28;20046;-70
2023/12/24 06:11:24;;;;;;;16.35;6.50;;;;;;;;;;4991789;28;20049;-70
2023/12/24 06:13:50;;;;;;;17.95;7.20;;;;;;;;;;4991610;28;20474;-70
2023/12/24 06:16:16;;;;;;;15.05;6.85;;;;;;;;;;4991693;28;20054;-70
2023/12/24 06:18:42;;;;;;;16.55;7.57;;;;;;;;;;4996340;28;20046;-70
2023/12/24 06:21:11;;;;;;;26.27;8.43;;;;;;;;;;5011101;28;20042;-70
2023/12/24 06:23:38;;;;;;;14.13;7.45;;;;;;;;;;5011470;28;20038;-70
2023/12/24 06:26:05;;;;;;;16.45;8.25;;;;;;;;;;5004007;28;20042;-70
2023/12/24 06:28:31;;;;;;;21.13;7.68;;;;;;;;;;4995393;28;20042;-70
2023/12/24 06:30:57;;;;;;;21.05;7.97;;;;;;;;;;4995289;28;20184;-70
2023/12/24 06:33:23;;;;;;;24.17;8.93;;;;;;;;;;4995593;28;20057;-70
2023/12/24 06:35:49;;;;;;;27.17;8.90;;;;;;;;;;4994922;28;20050;-70
2023/12/24 06:38:15;;;;;;;25.25;8.60;;;;;;;;;;4995010;28;20049;-70
2023/12/24 06:40:41;;;;;;;22.90;8.25;;;;;;;;;;4995188;28;20038;-70
2023/12/24 06:43:08;;;;;;;24.77;7.93;;;;;;;;;;4994902;28;20093;-70
2023/12/24 06:45:34;;;;;;;27.33;9.23;;;;;;;;;;4995396;28;20053;-70
2023/12/24 06:48:02;;;;;;;24.90;8.25;;;;;;;;;;4995224;28;20470;-70
2023/12/24 06:50:29;;;;;;;33.08;8.98;;;;;;;;;;4994962;28;20050;-70
2023/12/24 06:52:55;;;;;;;29.00;8.02;;;;;;;;;;4995511;28;20041;-70
2023/12/24 06:55:21;;;;;;;28.73;8.95;;;;;;;;;;4995241;28;20096;-70
2023/12/24 06:57:47;;;;;;;29.77;8.85;;;;;;;;;;4993396;28;20078;-70
2023/12/24 07:00:13;;;;;;;36.67;8.80;;;;;;;;;;4993398;28;20552;-70
2023/12/24 07:02:39;;;;;;;28.90;8.38;;;;;;;;;;4995006;28;20096;-70
2023/12/24 07:05:05;;;;;;;34.85;8.32;;;;;;;;;;4994739;28;20038;-70
2023/12/24 07:07:31;;;;;;;30.65;7.65;;;;;;;;;;4994910;28;20139;-70
2023/12/24 07:09:57;;;;;;;31.55;7.95;;;;;;;;;;4994844;28;20045;-70
2023/12/24 07:12:23;;;;;;;31.42;7.88;;;;;;;;;;4994156;28;20126;-70
2023/12/24 07:14:50;;;;;;;23.35;7.65;;;;;;;;;;4993228;28;20050;-70
2023/12/24 07:17:16;;;;;;;24.83;8.00;;;;;;;;;;4994517;28;20117;-70
2023/12/24 07:19:42;;;;;;;24.83;7.93;;;;;;;;;;5007349;28;20049;-70
2023/12/24 07:22:08;;;;;;;29.77;9.77;;;;;;;;;;5014083;28;20473;-70
2023/12/24 07:24:36;;;;;;;21.42;8.45;;;;;;;;;;5014333;28;20053;-70
2023/12/24 07:27:02;;;;;;;33.70;9.55;;;;;;;;;;4995878;28;20046;-70
2023/12/24 07:29:28;;;;;;;29.02;9.57;;;;;;;;;;4993507;28;20046;-70
2023/12/24 07:31:54;;;;;;;30.08;9.77;;;;;;;;;;4994559;28;20109;-70
2023/12/24 07:34:20;;;;;;;32.67;9.65;;;;;;;;;;4994167;28;20042;-70
2023/12/24 07:36:46;;;;;;;26.70;9.10;;;;;;;;;;4993087;28;20046;-70
2023/12/24 07:39:12;;;;;;;26.02;9.07;;;;;;;;;;4992694;28;20517;-70
2023/12/24 07:41:38;;;;;;;29.40;9.68;;;;;;;;;;4994367;28;20385;-70
2023/12/24 07:44:04;;;;;;;25.10;8.80;;;;;;;;;;4993975;28;20042;-70
2023/12/24 07:46:30;;;;;;;32.97;10.73;;;;;;;;;;4993982;28;20129;-70
2023/12/24 07:48:57;;;;;;;24.17;8.63;;;;;;;;;;4993992;28;20045;-70
2023/12/24 07:51:23;;;;;;;32.20;10.40;;;;;;;;;;4992518;28;20065;-70
2023/12/24 07:53:50;;;;;;;28.60;8.80;;;;;;;;;;4993796;28;20128;-70
2023/12/24 07:56:16;;;;;;;26.38;9.02;;;;;;;;;;4994036;28;20098;-70
2023/12/24 07:58:42;;;;;;;31.98;9.02;;;;;;;;;;4993544;28;20038;-70
2023/12/24 08:01:08;;;;;;;29.33;9.95;;;;;;;;;;4992763;28;20053;-70
2023/12/24 08:03:34;;;;;;;32.88;9.88;;;;;;;;;;4992401;28;20170;-70
2023/12/24 08:06:01;;;;;;;34.15;9.02;;;;;;;;;;4992355;28;20145;-70
2023/12/24 08:08:28;;;;;;;30.83;8.95;;;;;;;;;;4993613;28;20054;-70
2023/12/24 08:10:54;;;;;;;40.55;9.07;;;;;;;;;;4993821;28;20053;-70
2023/12/24 08:13:21;;;;;;;30.88;7.75;;;;;;;;;;4993468;28;20142;-70
2023/12/24 08:15:47;;;;;;;36.65;7.60;;;;;;;;;;4992225;28;20057;-70
2023/12/24 08:18:13;;;;;;;26.45;7.30;;;;;;;;;;4994443;28;20046;-70
2023/12/24 08:20:39;;;;;;;41.30;8.63;;;;;;;;;;5012867;28;20076;-70
2023/12/24 08:23:07;;;;;;;31.58;7.55;;;;;;;;;;5013233;28;20045;-70
2023/12/24 08:25:33;;;;;;;38.33;6.70;;;;;;;;;;5005723;28;20635;-70
2023/12/24 08:28:01;;;;;;;35.55;7.18;;;;;;;;;;4992591;28;20038;-70
2023/12/24 08:30:28;;;;;;;39.35;7.70;;;;;;;;;;4992832;28;20109;-70
2023/12/24 08:32:54;;;;;;;30.30;7.22;;;;;;;;;;4993184;28;20117;-70
2023/12/24 08:35:21;;;;;;;37.47;7.85;;;;;;;;;;4992887;28;20519;-70
2023/12/24 08:37:47;;;;;;;32.22;6.97;;;;;;;;;;4991589;28;20050;-70
2023/12/24 08:40:13;;;;;;;38.13;7.82;;;;;;;;;;4991849;28;20042;-70
2023/12/24 08:42:39;;;;;;;34.28;7.18;;;;;;;;;;4992584;28;20050;-70
2023/12/24 08:45:05;;;;;;;34.63;7.32;;;;;;;;;;4991626;28;20566;-70
2023/12/24 08:47:31;;;;;;;31.00;7.68;;;;;;;;;;4991903;28;20053;-70
2023/12/24 08:49:58;;;;;;;28.20;6.82;;;;;;;;;;4992218;28;20038;-70
2023/12/24 08:52:24;;;;;;;32.97;8.45;;;;;;;;;;4991412;28;20046;-70
2023/12/24 08:54:51;;;;;;;36.33;8.20;;;;;;;;;;4992889;28;20047;-70
2023/12/24 08:57:17;;;;;;;29.60;8.48;;;;;;;;;;4992626;28;20045;-70
2023/12/24 08:59:43;;;;;;;26.30;7.70;;;;;;;;;;4992828;28;20042;-70
2023/12/24 09:02:09;;;;;;;27.52;7.15;;;;;;;;;;4992539;28;20523;-70
2023/12/24 09:04:35;;;;;;;28.98;7.05;;;;;;;;;;4992466;28;20030;-70
2023/12/24 09:07:01;;;;;;;28.48;6.80;;;;;;;;;;4992493;28;20049;-70
2023/12/24 09:09:27;;;;;;;28.85;6.18;;;;;;;;;;4992559;28;20046;-70
2023/12/24 09:11:53;;;;;;;24.92;7.00;;;;;;;;;;4992093;28;20077;-70
2023/12/24 09:14:19;;;;;;;27.05;6.57;;;;;;;;;;4992492;28;20393;-70
2023/12/24 09:16:45;;;;;;;29.90;7.00;;;;;;;;;;4991231;28;20046;-70
2023/12/24 09:19:11;;;;;;;31.30;5.95;;;;;;;;;;5000719;28;20037;-70
2023/12/24 09:21:37;;;;;;;25.88;5.60;;;;;;;;;;5012154;28;20052;-70
2023/12/24 09:24:06;;;;;;;23.95;5.85;;;;;;;;;;5011810;28;20560;-70
2023/12/24 09:26:32;;;;;;;21.75;6.28;;;;;;;;;;4997023;28;20053;-70
2023/12/24 09:28:58;;;;;;;25.20;7.13;;;;;;;;;;4992302;28;20116;-70
2023/12/24 09:31:24;;;;;;;22.80;6.47;;;;;;;;;;4991881;28;20072;-70
2023/12/24 09:33:50;;;;;;;22.55;5.80;;;;;;;;;;4991523;28;20046;-70
2023/12/24 09:36:16;;;;;;;22.92;6.00;;;;;;;;;;4990721;28;20050;-70
2023/12/24 09:38:42;;;;;;;23.25;5.68;;;;;;;;;;4990790;28;20039;-70
2023/12/24 09:41:08;;;;;;;28.65;6.40;;;;;;;;;;4990633;28;20042;-70
2023/12/24 09:43:38;;;;;;;25.85;6.50;;;;;;;;;;4990675;28;20085;-70
2023/12/24 09:46:04;;;;;;;21.70;6.07;;;;;;;;;;4990674;28;20077;-70
2023/12/24 09:48:30;;;;;;;26.88;6.65;;;;;;;;;;4991511;28;20046;-70
2023/12/24 09:50:56;;;;;;;20.30;6.35;;;;;;;;;;4990500;28;20050;-70
2023/12/24 09:53:22;;;;;;;24.15;6.00;;;;;;;;;;4990748;28;20085;-70
2023/12/24 09:55:48;;;;;;;24.77;5.45;;;;;;;;;;4990076;28;20125;-70
2023/12/24 09:58:15;;;;;;;21.27;5.05;;;;;;;;;;4991714;28;20039;-70
2023/12/24 10:00:41;;;;;;;18.75;4.95;;;;;;;;;;4990461;28;20121;-70
2023/12/24 10:03:07;;;;;;;24.08;5.22;;;;;;;;;;4991316;28;20045;-70
2023/12/24 10:05:33;;;;;;;19.52;4.38;;;;;;;;;;4990565;28;20038;-70
2023/12/24 10:07:59;;;;;;;24.27;4.78;;;;;;;;;;4991776;28;20085;-70
2023/12/24 10:10:32;;;;;;;20.58;4.57;;;;;;;;;;4991163;28;20053;-70
2023/12/24 10:13:07;;;;;;;22.88;5.15;;;;;;;;;;4991757;28;20046;-70
2023/12/24 10:15:38;;;;;;;17.17;4.75;;;;;;;;;;4991825;28;20391;-70
2023/12/24 10:18:22;;;;;;;18.73;4.43;;;;;;;;;;4989835;28;20478;-70
2023/12/24 10:20:49;;;;;;;17.58;4.47;;;;;;;;;;4990168;28;20034;-70
2023/12/24 10:23:15;;;;;;;17.27;4.07;;;;;;;;;;5006831;28;20662;-70
2023/12/24 10:25:41;;;;;;;18.38;4.15;;;;;;;;;;4998145;28;20034;-70
2023/12/24 10:28:08;;;;;;;22.40;5.38;;;;;;;;;;5010761;28;20042;-70
2023/12/24 10:30:35;;;;;;;21.42;3.83;;;;;;;;;;5010750;28;20381;-70
2023/12/24 10:33:08;;;;;;;17.20;3.78;;;;;;;;;;5010888;28;20054;-70
2023/12/24 10:35:35;;;;;;;19.08;3.90;;;;;;;;;;5009509;28;20061;-70
2023/12/24 10:38:15;;;;;;;19.27;3.78;;;;;;;;;;5009349;28;20053;-70
2023/12/24 10:40:44;;;;;;;17.88;3.75;;;;;;;;;;5009113;28;20448;-70
2023/12/24 10:43:10;;;;;;;13.65;3.33;;;;;;;;;;4996432;28;20045;-70
2023/12/24 10:45:37;;;;;;;16.30;3.47;;;;;;;;;;4990837;28;20083;-70
2023/12/24 10:48:03;;;;;;;18.98;3.28;;;;;;;;;;4990918;28;20050;-70
2023/12/24 10:50:29;;;;;;;18.05;3.17;;;;;;;;;;4991200;28;20042;-70
2023/12/24 10:52:55;;;;;;;16.45;3.17;;;;;;;;;;4991161;28;20038;-70
2023/12/24 10:55:22;;;;;;;19.45;3.83;;;;;;;;;;4989507;28;20053;-70
2023/12/24 10:58:06;;;;;;;18.95;2.95;;;;;;;;;;4989832;28;20098;-70
2023/12/24 11:00:32;;;;;;;17.85;3.20;;;;;;;;;;4991357;28;20065;-70
2023/12/24 11:02:59;;;;;;;15.35;3.30;;;;;;;;;;4990968;28;20658;-70
2023/12/24 11:05:40;;;;;;;15.88;4.13;;;;;;;;;;4989847;28;20051;-70
2023/12/24 11:08:21;;;;;;;15.90;3.13;;;;;;;;;;4989628;28;20049;-70
2023/12/24 11:10:53;;;;;;;22.60;5.13;;;;;;;;;;4991214;28;20564;-70
2023/12/24 11:13:43;;;;;;;19.02;3.30;;;;;;;;;;4999381;28;20042;-70
2023/12/24 11:16:09;;;;;;;25.40;3.47;;;;;;;;;;5008727;28;20073;-70
2023/12/24 11:18:43;;;;;;;19.98;4.60;;;;;;;;;;5009669;28;20042;-70
2023/12/24 11:21:10;;;;;;;24.20;3.72;;;;;;;;;;4994566;28;20061;-70
2023/12/24 11:23:37;;;;;;;21.52;6.18;;;;;;;;;;4994387;28;20096;-70
2023/12/24 11:26:23;;;;;;;23.27;5.45;;;;;;;;;;5002674;28;20038;-70
2023/12/24 11:28:49;;;;;;;19.35;3.67;;;;;;;;;;5013543;28;20056;-70
2023/12/24 11:31:22;;;;;;;16.50;3.25;;;;;;;;;;5012617;28;20057;-70
2023/12/24 11:33:49;;;;;;;23.77;4.10;;;;;;;;;;5013999;28;20038;-70
2023/12/24 11:36:15;;;;;;;18.17;3.65;;;;;;;;;;5013883;28;20050;-70
2023/12/24 11:38:42;;;;;;;16.58;3.10;;;;;;;;;;5012119;28;20536;-70
2023/12/24 11:41:09;;;;;;;18.85;3.00;;;;;;;;;;5013423;28;20049;-70
2023/12/24 11:43:36;;;;;;;15.10;3.00;;;;;;;;;;5013732;28;20121;-70
2023/12/24 11:46:03;;;;;;;15.13;3.30;;;;;;;;;;5013709;28;20046;-70
2023/12/24 11:48:30;;;;;;;16.55;3.30;;;;;;;;;;5013147;28;20042;-70
2023/12/24 11:51:09;;;;;;;11.90;2.78;;;;;;;;;;5013596;28;20691;-70
2023/12/24 11:53:36;;;;;;;12.40;2.78;;;;;;;;;;5013249;28;20045;-70
2023/12/24 11:56:12;;;;;;;14.05;2.42;;;;;;;;;;5013447;28;20408;-70
2023/12/24 11:58:39;;;;;;;15.95;3.17;;;;;;;;;;5012971;28;20096;-70
2023/12/24 12:01:06;;;;;;;13.32;2.90;;;;;;;;;;5013003;28;20069;-70
2023/12/24 12:03:32;;;;;;;16.38;3.80;;;;;;;;;;5012978;28;20103;-70
2023/12/24 12:05:59;;;;;;;19.98;3.33;;;;;;;;;;5012028;28;20045;-70
2023/12/24 12:08:25;;;;;;;18.60;3.15;;;;;;;;;;5011207;28;20057;-71
2023/12/24 12:10:52;;;;;;;16.30;3.10;;;;;;;;;;5013214;28;20041;-71
2023/12/24 12:13:19;;;;;;;17.75;3.20;;;;;;;;;;5013176;28;20139;-70
2023/12/24 12:15:45;;;;;;;16.20;3.85;;;;;;;;;;5012872;28;20045;-70
2023/12/24 12:18:12;;;;;;;15.13;3.70;;;;;;;;;;5012736;28;20046;-70
2023/12/24 12:20:38;;;;;;;20.38;3.58;;;;;;;;;;5012679;28;20041;-70
2023/12/24 12:23:04;;;;;;;15.65;3.28;;;;;;;;;;5012749;28;20637;-70
2023/12/24 12:25:30;;;;;;;13.80;3.92;;;;;;;;;;5006877;28;20039;-70
2023/12/24 12:27:56;;;;;;;19.65;3.58;;;;;;;;;;4993043;28;20129;-70
2023/12/24 12:30:22;;;;;;;18.83;3.85;;;;;;;;;;4992949;28;20069;-70
2023/12/24 12:32:48;;;;;;;13.82;4.10;;;;;;;;;;4992815;28;20470;-70
2023/12/24 12:35:15;;;;;;;16.42;4.13;;;;;;;;;;4992970;28;20078;-70
2023/12/24 12:37:41;;;;;;;19.70;3.90;;;;;;;;;;4992995;28;20035;-70
2023/12/24 12:40:08;;;;;;;16.23;3.88;;;;;;;;;;4991052;28;20093;-70
2023/12/24 12:42:34;;;;;;;23.00;4.30;;;;;;;;;;4991502;28;20060;-70
2023/12/24 12:45:00;;;;;;;16.90;3.78;;;;;;;;;;4992962;28;20065;-70
2023/12/24 12:47:26;;;;;;;18.23;3.65;;;;;;;;;;4992348;28;20440;-70
2023/12/24 12:49:52;;;;;;;16.33;3.70;;;;;;;;;;4992787;28;20564;-70
2023/12/24 12:52:18;;;;;;;22.40;4.25;;;;;;;;;;4992716;28;20046;-70
2023/12/24 12:54:45;;;;;;;18.90;4.30;;;;;;;;;;4992186;28;20052;-70
2023/12/24 12:57:11;;;;;;;16.60;4.10;;;;;;;;;;5012080;28;20425;-70
2023/12/24 12:59:37;;;;;;;20.25;4.15;;;;;;;;;;4993226;28;20050;-70
2023/12/24 13:02:04;;;;;;;25.48;4.65;;;;;;;;;;4992353;28;20589;-70
2023/12/24 13:04:34;;;;;;;25.15;4.72;;;;;;;;;;4991174;28;20057;-70
2023/12/24 13:07:08;;;;;;;16.70;4.47;;;;;;;;;;4992460;28;20112;-70
2023/12/24 13:09:43;;;;;;;22.77;4.88;;;;;;;;;;4991912;28;20042;-70
2023/12/24 13:12:10;;;;;;;18.67;5.13;;;;;;;;;;4992171;28;20046;-70
2023/12/24 13:14:36;;;;;;;23.30;4.78;;;;;;;;;;4992495;28;20290;-70
2023/12/24 13:17:11;;;;;;;17.90;5.20;;;;;;;;;;4991540;28;20049;-70
2023/12/24 13:19:41;;;;;;;20.75;5.07;;;;;;;;;;5003092;28;20042;-70
2023/12/24 13:22:08;;;;;;;22.75;5.25;;;;;;;;;;5010170;28;20073;-70
2023/12/24 13:24:34;;;;;;;25.65;4.72;;;;;;;;;;5008259;28;20034;-70
2023/12/24 13:27:01;;;;;;;22.00;4.68;;;;;;;;;;5011053;28;20034;-70
2023/12/24 13:29:29;;;;;;;20.95;4.60;;;;;;;;;;5011214;28;20431;-70
2023/12/24 13:31:55;;;;;;;25.83;4.90;;;;;;;;;;5011008;28;20049;-70
2023/12/24 13:34:21;;;;;;;21.38;4.10;;;;;;;;;;5010048;28;20553;-70
2023/12/24 13:36:47;;;;;;;19.50;4.40;;;;;;;;;;5009331;28;20125;-70
2023/12/24 13:39:16;;;;;;;21.02;4.68;;;;;;;;;;5009641;28;20077;-70
2023/12/24 13:41:45;;;;;;;16.08;3.92;;;;;;;;;;5010294;28;20499;-70
2023/12/24 13:44:11;;;;;;;15.48;3.45;;;;;;;;;;5010169;28;20044;-70
2023/12/24 13:46:38;;;;;;;13.50;4.13;;;;;;;;;;5009729;28;20033;-70
2023/12/24 13:49:04;;;;;;;14.32;2.78;;;;;;;;;;5010033;28;20048;-70
2023/12/24 13:51:33;;;;;;;19.63;3.80;;;;;;;;;;5010308;28;20053;-70
2023/12/24 13:53:59;;;;;;;16.70;3.25;;;;;;;;;;5008552;28;20045;-70
2023/12/24 13:56:25;;;;;;;13.70;2.88;;;;;;;;;;5010417;28;20096;-70
2023/12/24 13:58:51;;;;;;;13.50;2.90;;;;;;;;;;5008501;28;20089;-70
2023/12/24 14:01:17;;;;;;;17.00;3.17;;;;;;;;;;5008104;28;20338;-69
2023/12/24 14:03:43;;;;;;;13.57;3.03;;;;;;;;;;5009703;28;20091;-69
2023/12/24 14:06:09;;;;;;;9.13;2.38;;;;;;;;;;5010206;28;20121;-69
2023/12/24 14:08:38;;;;;;;7.85;2.03;;;;;;;;;;5007937;28;20085;-69
2023/12/24 14:11:04;;;;;;;9.48;2.30;;;;;;;;;;5008671;28;20401;-69
2023/12/24 14:13:31;;;;;;;7.30;2.08;;;;;;;;;;5009667;28;20119;-69
2023/12/24 14:15:57;;;;;;;8.50;2.05;;;;;;;;;;5009331;28;20049;-69
2023/12/24 14:18:23;;;;;;;9.60;2.17;;;;;;;;;;5008070;28;20472;-69
2023/12/24 14:20:49;;;;;;;11.43;2.33;;;;;;;;;;5009982;28;20492;-69
2023/12/24 14:23:15;;;;;;;9.10;1.98;;;;;;;;;;5009375;28;20180;-69
2023/12/24 14:25:42;;;;;;;7.90;2.63;;;;;;;;;;5002608;28;20044;-69
2023/12/24 14:28:11;;;;;;;10.90;2.15;;;;;;;;;;4989707;28;20339;-69
2023/12/24 14:30:37;;;;;;;5.80;2.13;;;;;;;;;;4972002;28;20054;-69